CheckWX is a tool to help pilots better visualize weather data.  It is not intended as a substitute for an official pre-flight weather briefing.

21:15:03 UTC

KMXF METAR
Maxwell AFB Airport
Montgomery, Alabama, USA
Current

19 mins ago

KMXF 162056Z AUTO 16006KT 10SM SCT050 33/22 A2994 RMK AO2 SLP140 T03300215 57025
Observed
Jun-16 @ 20:56 UTC
Wind
  • 160° at 6 KTS
Visibility
10 SM
Flight Rules
VFR
Cloud Levels
  • Scattered at 5,000' AGL
Temperature
33°C / 91°F
Dewpoint
22°C / 72°F
Heat Index
37°C / 98°F
Humidity
52%
Altimeter
29.94" Hg
Pressure
1013.92 hPa
Previous

1 hour ago

KMXF 161956Z AUTO 09005KT 10SM CLR 33/21 A2996 RMK AO2 SLP146 T03270212
Observed
Jun-16 @ 19:56 UTC
Wind
  • 090° at 5 KTS
Visibility
10 SM
Flight Rules
VFR
Cloud Levels
  • Clear skies
Temperature
33°C / 91°F
Dewpoint
21°C / 70°F
Heat Index
36°C / 96°F
Humidity
49%
Altimeter
29.96" Hg
Pressure
1014.52 hPa
Previous

2 hours ago

KMXF 161856Z AUTO 00000KT 10SM SCT046 32/21 A2999 RMK AO2 SLP157 T03220214
Observed
Jun-16 @ 18:56 UTC
Visibility
10 SM
Flight Rules
VFR
Cloud Levels
  • Scattered at 4,600' AGL
Temperature
32°C / 90°F
Dewpoint
21°C / 70°F
Heat Index
36°C / 96°F
Humidity
52%
Altimeter
29.99" Hg
Pressure
1015.62 hPa